ALLEN SAMUEL R, officer (Chairman) of DE - Past Performance as of 11/18/19. Total 27 Records. Link to Thomson Financial
Buy(P) /
Sell(S)
P/S date Filed Date Company Symbol Insider Relationship Share Amt. Unit Price Total Proceeds Shares Owned Return(1m) Details
S 2019-11-04 2019-11-05 17:02:05.0 DEERE & CO DE ALLEN SAMUEL R officer (Chairman) 2,100 $179.06 $376,031.00 311,344 view
S 2019-11-04 2019-11-05 17:02:05.0 DEERE & CO DE ALLEN SAMUEL R officer (Chairman) 112,153 $178.29 $1.99952E7 311,344 view
S 2018-02-28 2018-02-28 16:16:09.0 DEERE & CO DE ALLEN SAMUEL R officer (Chairman & CEO) 8,600 $164.71 $1,416,540.00 292,508 view
S 2018-02-28 2018-02-28 16:16:09.0 DEERE & CO DE ALLEN SAMUEL R officer (Chairman & CEO) 192,095 $164.02 $3.15082E7 292,508 view
S 2018-02-28 2018-02-28 16:16:09.0 DEERE & CO DE ALLEN SAMUEL R officer (Chairman & CEO) 68,658 $163.17 $1.12028E7 292,508 view
S 2017-06-01 2017-06-02 10:30:08.0 DEERE & CO DE ALLEN SAMUEL R officer (Chairman & CEO) 62,704 $125.00 $7,838,000.00 270,788 view
S 2017-02-22 2017-02-23 10:32:13.0 DEERE & CO DE ALLEN SAMUEL R officer (Chairman & CEO) 5,219 $109.82 $573,128.00 270,788 N/A view
S 2017-02-22 2017-02-23 10:32:13.0 DEERE & CO DE ALLEN SAMUEL R officer (Chairman & CEO) 23,589 $109.30 $2,578,370.00 276,007 N/A view
S 2014-04-03 2014-04-03 17:40:53.0 DEERE & CO DE ALLEN SAMUEL R officer (Chairman & CEO) 32,300 $92.02 $2,972,250.00 232,948 N/A view
S 2014-04-02 2014-04-03 17:40:53.0 DEERE & CO DE ALLEN SAMUEL R officer (Chairman & CEO) 71 $92.00 $6,532.00 232,948 N/A view
S 2013-01-29 2013-01-30 16:52:06.0 DEERE & CO DE ALLEN SAMUEL R officer (Chairman & CEO) 19,922 $95.00 $1,892,590.00 186,374 7.55% view
P 2011-11-03 2011-11-07 14:10:52.0 WHIRLPOOL CORP /DE/ WHR ALLEN SAMUEL R director 5,000 $51.55 $257,750.00 7,277 -4.07% view
S 2007-12-10 2007-12-12 13:00:46.0 DEERE & CO DE ALLEN SAMUEL R officer (Pres.WW C&F Div & Power System) 19,920 $88.05 $1,754,050.00 63,966 -2.48% view
S 2007-12-10 2007-12-12 13:00:46.0 DEERE & CO DE ALLEN SAMUEL R officer (Pres.WW C&F Div & Power System) 16,215 $88.05 $1,427,810.00 63,966 -2.48% view
S 2007-12-10 2007-12-12 13:00:46.0 DEERE & CO DE ALLEN SAMUEL R officer (Pres.WW C&F Div & Power System) 23,566 $88.05 $2,075,100.00 63,966 -2.48% view
S 2007-11-27 2007-11-28 16:50:29.0 DEERE & CO DE ALLEN SAMUEL R officer (Pres.WW C&F Div & Power System) 10,261 $160.02 $1,641,980.00 54,362 43.53% view
S 2007-11-27 2007-11-28 16:50:29.0 DEERE & CO DE ALLEN SAMUEL R officer (Pres.WW C&F Div & Power System) 23,923 $160.02 $3,828,190.00 54,362 43.53% view
S 2007-11-27 2007-11-28 16:50:29.0 DEERE & CO DE ALLEN SAMUEL R officer (Pres.WW C&F Div & Power System) 31,000 $160.02 $4,960,670.00 54,362 43.53% view
S 2006-11-27 2006-11-28 10:48:14.0 DEERE & CO DE ALLEN SAMUEL R officer (Pres.WW C&F Div & Power Syst) 28,636 $96.57 $2,765,420.00 46,266 0.08% view
S 2006-11-27 2006-11-28 10:48:14.0 DEERE & CO DE ALLEN SAMUEL R officer (Pres.WW C&F Div & Power Syst) 36,448 $96.57 $3,519,830.00 46,266 0.08% view
S 2006-11-27 2006-11-28 10:48:14.0 DEERE & CO DE ALLEN SAMUEL R officer (Pres.WW C&F Div & Power Syst) 20,918 $96.57 $2,020,080.00 46,266 0.08% view
S 2004-06-30 2004-07-01 10:14:10.0 DEERE & CO DE ALLEN SAMUEL R officer (Pres. Fin. Svcs, JDIS & HR) 19,291 $70.00 $1,350,370.00 21,924 10.27% view
S 2004-06-30 2004-07-01 10:14:10.0 DEERE & CO DE ALLEN SAMUEL R officer (Pres. Fin. Svcs, JDIS & HR) 10,409 $70.00 $728,630.00 21,924 10.27% view
S 2004-06-25 2004-06-29 10:10:47.0 DEERE & CO DE ALLEN SAMUEL R officer (Pres. Fin. Svcs, JDIS & HR) 5,029 $70.00 $352,030.00 21,924 11.61% view
S 2004-06-25 2004-06-29 10:10:47.0 DEERE & CO DE ALLEN SAMUEL R officer (Pres. Fin. Svcs, JDIS & HR) 262 $70.00 $18,340.00 21,924 11.61% view
S 2004-06-25 2004-06-29 10:10:47.0 DEERE & CO DE ALLEN SAMUEL R officer (Pres. Fin. Svcs, JDIS & HR) 5,796 $70.00 $405,720.00 21,924 11.61% view
S 2004-06-25 2004-06-29 10:10:47.0 DEERE & CO DE ALLEN SAMUEL R officer (Pres. Fin. Svcs, JDIS & HR) 5,428 $70.00 $379,960.00 21,924 11.61% view
* Filed by insider as open market transaction, but marked as private transaction by insidercow's proprietary method